createdAt,value
2022-08-02T00:01:01.173Z,71.82
2022-08-02T00:03:03.826Z,71.72
2022-08-02T00:05:06.941Z,71.88
2022-08-02T00:07:09.467Z,71.87
2022-08-02T00:09:12.219Z,72.22
2022-08-02T00:11:14.763Z,72.77
2022-08-02T00:13:17.469Z,72.94
2022-08-02T00:15:20.158Z,73.40
2022-08-02T00:17:22.798Z,73.26
2022-08-02T00:19:25.391Z,73.78
2022-08-02T00:21:27.936Z,74.25
2022-08-02T00:23:30.480Z,74.18
2022-08-02T00:25:33.022Z,74.55
2022-08-02T00:27:35.806Z,75.00
2022-08-02T00:29:44.433Z,74.99
2022-08-02T00:31:55.701Z,74.98
2022-08-02T00:34:27.749Z,75.02
2022-08-02T00:36:20.782Z,75.05
2022-08-02T00:38:23.330Z,75.35
2022-08-02T00:40:25.858Z,75.18
2022-08-02T00:42:28.352Z,75.31
2022-08-02T00:44:30.898Z,75.13
2022-08-02T00:46:33.409Z,75.32
2022-08-02T00:48:36.356Z,75.26
2022-08-02T00:50:44.073Z,75.16
2022-08-02T00:52:46.596Z,75.15
2022-08-02T00:54:49.130Z,75.29
2022-08-02T00:56:51.734Z,75.29
2022-08-02T00:58:54.349Z,75.50
2022-08-02T01:00:57.829Z,75.35
2022-08-02T01:03:00.395Z,75.34
2022-08-02T01:05:03.270Z,75.31
2022-08-02T01:07:12.876Z,75.17
2022-08-02T01:09:16.701Z,75.41
2022-08-02T01:11:19.321Z,75.55
2022-08-02T01:13:22.190Z,75.89
2022-08-02T01:15:35.861Z,75.62
2022-08-02T01:17:48.280Z,75.85
2022-08-02T01:19:54.026Z,75.77
2022-08-02T01:22:06.210Z,75.82
2022-08-02T01:24:43.109Z,75.96
2022-08-02T01:26:52.181Z,75.60
2022-08-02T01:28:58.623Z,75.90
2022-08-02T01:31:25.619Z,76.46
2022-08-02T01:33:35.811Z,76.83
2022-08-02T01:35:47.390Z,77.29
2022-08-02T01:37:59.126Z,77.98
2022-08-02T01:40:08.467Z,78.75
2022-08-02T01:42:12.590Z,78.86
2022-08-02T01:44:17.262Z,78.98
2022-08-02T01:46:31.882Z,78.88
2022-08-02T01:48:35.275Z,79.26
2022-08-02T01:50:39.072Z,79.55
2022-08-02T01:52:53.297Z,79.69
2022-08-02T01:55:09.834Z,79.68
2022-08-02T01:57:23.283Z,79.56
2022-08-02T01:59:27.875Z,79.48
2022-08-02T02:01:33.841Z,79.28
2022-08-02T02:03:41.625Z,79.38
2022-08-02T02:05:47.770Z,79.49
2022-08-02T02:07:54.106Z,79.81
2022-08-02T02:09:59.077Z,79.67
2022-08-02T02:12:12.745Z,79.81
2022-08-02T02:14:18.175Z,79.83
2022-08-02T02:16:22.888Z,79.50
2022-08-02T02:18:28.438Z,79.40
2022-08-02T02:20:31.231Z,79.27
2022-08-02T02:22:33.795Z,78.59
2022-08-02T02:24:37.587Z,78.33
2022-08-02T02:26:51.902Z,78.05
2022-08-02T02:28:58.415Z,77.55
2022-08-02T02:31:06.846Z,77.40
2022-08-02T02:33:13.524Z,77.45
2022-08-02T02:35:18.247Z,77.44
2022-08-02T02:37:22.907Z,77.25
2022-08-02T02:39:28.739Z,77.17
2022-08-02T02:41:31.320Z,77.45
2022-08-02T02:43:35.639Z,76.82
2022-08-02T02:45:40.844Z,76.65
2022-08-02T02:47:43.579Z,76.36
2022-08-02T02:49:50.625Z,76.62
2022-08-02T02:51:54.211Z,77.01
2022-08-02T02:54:30.418Z,76.62
2022-08-02T02:56:21.279Z,76.37
2022-08-02T02:58:28.773Z,75.89
2022-08-02T03:00:50.529Z,75.70
2022-08-02T03:02:53.330Z,75.32
2022-08-02T03:04:58.246Z,75.32
2022-08-02T03:07:01.547Z,75.04
2022-08-02T03:09:05.902Z,75.06
2022-08-02T03:11:10.421Z,75.01
2022-08-02T03:13:13.668Z,75.50
2022-08-02T03:15:17.839Z,75.06
2022-08-02T03:17:20.474Z,74.27
2022-08-02T03:19:23.538Z,74.88
2022-08-02T03:21:26.139Z,75.00
2022-08-02T03:23:30.112Z,74.66
2022-08-02T03:25:32.628Z,74.33
2022-08-02T03:27:35.471Z,74.39
2022-08-02T03:29:37.971Z,74.04
2022-08-02T03:31:44.090Z,73.21
2022-08-02T03:33:47.261Z,72.69
2022-08-02T03:35:52.705Z,72.92
2022-08-02T03:37:56.794Z,72.96
2022-08-02T03:40:00.297Z,72.95
2022-08-02T03:42:03.006Z,73.08
2022-08-02T03:44:08.073Z,72.57
2022-08-02T03:46:13.302Z,73.04
2022-08-02T03:48:34.728Z,72.79
2022-08-02T03:50:38.363Z,72.81
2022-08-02T03:52:45.073Z,73.33
2022-08-02T03:54:47.858Z,72.63
2022-08-02T03:56:50.482Z,72.97
2022-08-02T03:59:06.881Z,72.35
2022-08-02T04:01:09.538Z,72.11
2022-08-02T04:03:12.161Z,71.80
2022-08-02T04:05:22.532Z,71.23
2022-08-02T04:08:33.787Z,71.56
2022-08-02T04:09:47.776Z,71.79
2022-08-02T04:11:50.482Z,71.49
2022-08-02T04:13:54.707Z,71.27
2022-08-02T04:16:10.622Z,70.90
2022-08-02T04:18:14.418Z,71.21
2022-08-02T04:20:23.045Z,71.50
2022-08-02T04:22:44.220Z,70.87
2022-08-02T04:24:51.612Z,70.26
2022-08-02T04:26:57.926Z,70.81
2022-08-02T04:29:10.557Z,70.59
2022-08-02T04:31:14.356Z,71.62
2022-08-02T04:33:17.355Z,71.40
2022-08-02T04:35:20.712Z,71.11
2022-08-02T04:37:24.679Z,71.74
2022-08-02T04:39:28.376Z,71.61
2022-08-02T04:41:43.898Z,71.71
2022-08-02T04:43:47.030Z,71.80
2022-08-02T04:45:52.638Z,72.00
2022-08-02T04:48:04.474Z,72.01
2022-08-02T04:50:08.352Z,71.65
2022-08-02T04:52:11.366Z,70.90
2022-08-02T04:54:14.160Z,70.94
2022-08-02T04:56:18.056Z,69.09
2022-08-02T05:00:44.111Z,68.61
2022-08-02T05:02:47.120Z,68.63
2022-08-02T05:04:49.742Z,69.22
2022-08-02T05:06:52.333Z,69.16
2022-08-02T05:08:54.904Z,68.77
2022-08-02T05:10:57.428Z,69.83
2022-08-02T05:13:00.081Z,69.86
2022-08-02T05:15:03.972Z,70.06
2022-08-02T05:17:06.983Z,69.80
2022-08-02T05:19:09.518Z,70.04
2022-08-02T05:21:12.596Z,69.79
2022-08-02T05:23:15.140Z,70.35
2022-08-02T05:25:17.820Z,68.35
2022-08-02T05:27:21.384Z,66.70
2022-08-02T05:29:24.496Z,66.81
2022-08-02T05:31:27.164Z,66.79
2022-08-02T05:33:29.734Z,65.94
2022-08-02T05:35:33.479Z,66.28
2022-08-02T05:37:37.311Z,66.46
2022-08-02T05:39:55.986Z,67.29
2022-08-02T05:41:58.888Z,67.28
2022-08-02T05:44:02.217Z,65.82
2022-08-02T05:46:04.786Z,65.93
2022-08-02T05:48:08.242Z,64.95
2022-08-02T05:50:11.074Z,65.71
2022-08-02T05:52:18.690Z,65.56
2022-08-02T05:54:38.434Z,66.26
2022-08-02T05:56:46.252Z,64.94
2022-08-02T05:59:05.431Z,64.84
2022-08-02T06:01:11.600Z,64.88
2022-08-02T06:03:32.405Z,64.65
2022-08-02T06:05:41.090Z,65.46
2022-08-02T06:07:46.487Z,65.30
2022-08-02T06:09:51.527Z,64.24
2022-08-02T06:12:02.006Z,64.40
2022-08-02T06:14:05.950Z,64.07
2022-08-02T06:16:14.240Z,64.07
2022-08-02T06:18:18.133Z,64.08
2022-08-02T06:20:37.354Z,64.04
2022-08-02T06:22:44.284Z,62.96
2022-08-02T06:24:50.913Z,64.15
2022-08-02T06:26:55.427Z,63.00
2022-08-02T06:28:59.171Z,62.72
2022-08-02T06:31:02.081Z,61.09
2022-08-02T06:33:04.711Z,61.30
2022-08-02T06:35:07.984Z,61.66
2022-08-02T06:37:28.050Z,60.78
2022-08-02T06:39:45.110Z,61.59
2022-08-02T06:41:49.919Z,59.98
2022-08-02T06:44:26.283Z,60.37
2022-08-02T06:47:09.396Z,59.26
2022-08-02T06:48:49.026Z,59.17
2022-08-02T06:50:51.622Z,58.32
2022-08-02T06:52:54.340Z,59.28
2022-08-02T06:55:01.688Z,58.85
2022-08-02T06:57:06.719Z,58.33
2022-08-02T06:59:09.229Z,58.62
2022-08-02T07:01:13.119Z,58.19
2022-08-02T07:03:15.828Z,57.64
2022-08-02T07:05:19.334Z,57.29
2022-08-02T07:07:21.942Z,57.26
2022-08-02T07:09:24.642Z,57.92
2022-08-02T07:11:27.211Z,57.78
2022-08-02T07:13:30.038Z,57.22
2022-08-02T07:15:33.043Z,57.46
2022-08-02T07:17:36.458Z,57.40
2022-08-02T07:19:39.050Z,57.16
2022-08-02T07:21:59.252Z,56.50
2022-08-02T07:24:03.613Z,56.70
2022-08-02T07:26:06.307Z,56.48
2022-08-02T07:28:22.089Z,58.24
2022-08-02T07:30:27.108Z,57.72
2022-08-02T07:32:32.131Z,56.25
2022-08-02T07:34:34.658Z,55.89
2022-08-02T07:36:37.319Z,55.53
2022-08-02T07:38:40.726Z,56.44
2022-08-02T07:40:43.817Z,55.35
2022-08-02T07:42:47.562Z,54.92
2022-08-02T07:44:50.809Z,54.82
2022-08-02T07:46:53.393Z,53.61
2022-08-02T07:48:56.061Z,53.62
2022-08-02T07:50:58.666Z,53.57
2022-08-02T07:53:01.154Z,53.40
2022-08-02T07:55:05.370Z,53.77
2022-08-02T07:57:08.114Z,54.70
2022-08-02T07:59:10.821Z,54.74
2022-08-02T08:01:13.351Z,55.13
2022-08-02T08:03:15.958Z,55.68
2022-08-02T08:05:18.480Z,53.97
2022-08-02T08:07:21.004Z,53.41
2022-08-02T08:09:23.700Z,54.37
2022-08-02T08:11:26.575Z,52.97
2022-08-02T08:13:29.157Z,53.32
2022-08-02T08:15:31.979Z,52.20
2022-08-02T08:17:35.297Z,51.70
2022-08-02T08:19:51.235Z,50.66
2022-08-02T08:21:55.110Z,51.58
2022-08-02T08:23:57.998Z,53.77
2022-08-02T08:26:00.922Z,54.25
2022-08-02T08:28:03.640Z,54.15
2022-08-02T08:30:06.998Z,51.64
2022-08-02T08:32:15.681Z,52.52
2022-08-02T08:34:20.087Z,54.10
2022-08-02T08:36:22.900Z,54.08
2022-08-02T08:38:25.596Z,51.70
2022-08-02T08:40:31.149Z,51.28
2022-08-02T08:42:34.446Z,51.40
2022-08-02T08:44:37.091Z,51.14
2022-08-02T08:46:42.351Z,49.41
2022-08-02T08:48:48.508Z,51.41
2022-08-02T08:50:57.168Z,52.76
2022-08-02T08:53:05.136Z,51.17
2022-08-02T08:55:10.978Z,50.24
2022-08-02T08:57:14.767Z,49.70
2022-08-02T08:59:18.798Z,50.83
2022-08-02T09:01:21.830Z,47.05
2022-08-02T09:03:24.432Z,46.79
2022-08-02T09:05:27.242Z,48.27
2022-08-02T09:07:29.934Z,48.00
2022-08-02T09:09:32.461Z,46.11
2022-08-02T09:11:35.136Z,46.15
2022-08-02T09:13:45.762Z,46.74
2022-08-02T09:16:11.086Z,47.12
2022-08-02T09:18:14.437Z,46.68
2022-08-02T09:20:17.439Z,47.11
2022-08-02T09:22:20.123Z,46.39
2022-08-02T09:24:23.750Z,48.04
2022-08-02T09:26:27.813Z,46.10
2022-08-02T09:28:32.149Z,47.50
2022-08-02T09:30:43.124Z,47.75
2022-08-02T09:32:48.130Z,46.78
2022-08-02T09:34:53.510Z,47.59
2022-08-02T09:36:56.166Z,45.74
2022-08-02T09:39:04.211Z,46.05
2022-08-02T09:41:19.607Z,44.54
2022-08-02T09:43:34.514Z,44.36
2022-08-02T09:45:37.850Z,46.03
2022-08-02T09:47:40.351Z,45.62
2022-08-02T09:49:52.215Z,45.47
2022-08-02T09:51:57.155Z,44.51
2022-08-02T09:54:08.738Z,43.52
2022-08-02T09:56:35.312Z,44.71
2022-08-02T09:58:39.607Z,43.87
2022-08-02T10:00:55.879Z,45.80
2022-08-02T10:03:14.310Z,45.31
2022-08-02T10:05:30.561Z,43.84
2022-08-02T10:07:39.042Z,44.54
2022-08-02T10:09:43.334Z,44.49
2022-08-02T10:11:51.438Z,45.20
2022-08-02T10:13:54.609Z,43.63
2022-08-02T10:15:57.602Z,42.54
2022-08-02T10:18:00.184Z,41.49
2022-08-02T10:20:05.010Z,43.30
2022-08-02T10:22:13.613Z,42.83
2022-08-02T10:24:25.287Z,41.90
2022-08-02T10:26:28.270Z,42.13
2022-08-02T10:28:33.811Z,43.04
2022-08-02T10:30:45.024Z,44.91
2022-08-02T10:32:49.728Z,44.43
2022-08-02T10:34:57.503Z,45.71
2022-08-02T10:37:06.695Z,45.71
2022-08-02T10:39:10.170Z,45.57
2022-08-02T10:41:13.070Z,46.67
2022-08-02T10:43:37.460Z,46.21
2022-08-02T10:45:40.311Z,45.93
2022-08-02T10:48:01.744Z,43.62
2022-08-02T10:50:04.986Z,44.19
2022-08-02T10:52:09.136Z,44.19
2022-08-02T10:54:17.712Z,43.64
2022-08-02T10:56:46.487Z,39.85
2022-08-02T10:59:27.545Z,39.96
2022-08-02T11:01:38.534Z,39.80
2022-08-02T11:03:45.147Z,39.69
2022-08-02T11:06:25.793Z,40.35
2022-08-02T11:08:29.205Z,40.53
2022-08-02T11:10:38.821Z,39.20
2022-08-02T11:12:59.798Z,38.56
2022-08-02T11:15:07.334Z,38.74
2022-08-02T11:17:12.216Z,37.63
2022-08-02T11:19:15.030Z,37.09
2022-08-02T11:21:31.024Z,37.26
2022-08-02T11:23:44.378Z,39.37
2022-08-02T11:26:11.335Z,39.84
2022-08-02T11:28:13.151Z,39.84
2022-08-02T11:30:16.718Z,38.39
2022-08-02T11:32:30.815Z,37.39
2022-08-02T11:34:37.242Z,37.69
2022-08-02T11:36:51.543Z,37.60
2022-08-02T11:39:12.618Z,37.59
2022-08-02T11:41:45.801Z,37.41
2022-08-02T11:43:47.284Z,38.61
2022-08-02T11:45:53.959Z,37.14
2022-08-02T11:47:56.518Z,37.97
2022-08-02T11:50:09.967Z,38.31
2022-08-02T11:52:12.926Z,38.40
2022-08-02T11:54:23.303Z,36.79
2022-08-02T11:56:32.895Z,37.55
2022-08-02T11:58:35.505Z,36.37
2022-08-02T12:00:38.732Z,34.61
2022-08-02T12:02:47.991Z,34.80
2022-08-02T12:04:59.073Z,34.27
2022-08-02T12:07:02.901Z,35.60
2022-08-02T12:09:18.070Z,34.28
2022-08-02T12:11:22.091Z,32.83
2022-08-02T12:13:24.935Z,32.43
2022-08-02T12:15:44.887Z,32.85
2022-08-02T12:18:06.546Z,33.61
2022-08-02T12:20:10.488Z,34.26
2022-08-02T12:22:18.300Z,34.91
2022-08-02T12:24:30.034Z,33.90
2022-08-02T12:26:43.118Z,35.34
2022-08-02T12:28:46.269Z,34.82
2022-08-02T12:30:59.317Z,33.87
2022-08-02T12:33:13.020Z,34.13
2022-08-02T12:35:26.355Z,33.29
2022-08-02T12:37:29.689Z,34.00
2022-08-02T12:39:46.973Z,31.77
2022-08-02T12:41:57.492Z,31.14
2022-08-02T12:44:00.633Z,31.14
2022-08-02T12:46:03.400Z,31.94
2022-08-02T12:48:06.065Z,30.36
2022-08-02T12:50:18.396Z,30.91
2022-08-02T12:52:22.787Z,30.64
2022-08-02T12:54:31.735Z,29.85
2022-08-02T12:56:38.556Z,31.18
2022-08-02T12:58:51.295Z,30.25
2022-08-02T13:00:57.073Z,29.59
2022-08-02T13:02:59.908Z,30.01
2022-08-02T13:05:02.890Z,28.27
2022-08-02T13:07:06.996Z,28.70
2022-08-02T13:09:17.496Z,29.11
2022-08-02T13:11:20.949Z,28.26
2022-08-02T13:13:23.461Z,27.88
2022-08-02T13:15:46.514Z,28.31
2022-08-02T13:17:49.060Z,28.13
2022-08-02T13:19:53.210Z,28.41
2022-08-02T13:22:02.348Z,27.99
2022-08-02T13:24:06.456Z,27.57
2022-08-02T13:26:31.332Z,27.60
2022-08-02T13:28:35.528Z,27.18
2022-08-02T13:30:43.691Z,28.20
2022-08-02T13:32:46.389Z,28.59
2022-08-02T13:34:49.144Z,28.86
2022-08-02T13:36:56.703Z,29.49
2022-08-02T13:38:59.579Z,29.90
2022-08-02T13:41:11.954Z,29.71
2022-08-02T13:43:14.521Z,28.18
2022-08-02T13:45:17.220Z,28.64
2022-08-02T13:47:36.493Z,28.38
2022-08-02T13:49:51.499Z,28.48
2022-08-02T13:51:55.984Z,28.35
2022-08-02T13:53:58.561Z,29.12
2022-08-02T13:56:03.098Z,29.27
2022-08-02T13:58:05.859Z,28.60
2022-08-02T14:00:09.145Z,28.97
2022-08-02T14:02:11.843Z,29.15
2022-08-02T14:04:19.697Z,28.09
2022-08-02T14:06:22.761Z,27.95
2022-08-02T14:08:25.410Z,27.87
2022-08-02T14:10:28.059Z,27.00
2022-08-02T14:12:33.632Z,28.56
2022-08-02T14:14:36.423Z,27.17
2022-08-02T14:16:39.466Z,27.43
2022-08-02T14:18:43.066Z,27.65
2022-08-02T14:20:45.881Z,27.94
2022-08-02T14:22:48.468Z,28.74
2022-08-02T14:24:51.188Z,28.30
2022-08-02T14:26:53.729Z,28.90
2022-08-02T14:28:56.693Z,27.92
2022-08-02T14:30:59.310Z,28.80
2022-08-02T14:33:01.986Z,28.61
2022-08-02T14:35:04.793Z,27.84
2022-08-02T14:37:07.499Z,27.73
2022-08-02T14:39:10.502Z,27.50
2022-08-02T14:41:13.106Z,27.42
2022-08-02T14:43:35.843Z,27.40
2022-08-02T14:45:41.198Z,27.13
2022-08-02T14:47:45.041Z,27.47
2022-08-02T14:49:50.304Z,27.71
2022-08-02T14:51:54.626Z,28.05
2022-08-02T14:54:03.140Z,28.82
2022-08-02T14:56:06.378Z,30.72
2022-08-02T14:58:10.053Z,29.84
2022-08-02T15:00:13.140Z,30.29
2022-08-02T15:02:17.314Z,31.17
2022-08-02T15:04:20.397Z,29.89
2022-08-02T15:06:23.234Z,28.81
2022-08-02T15:08:25.833Z,29.74
2022-08-02T15:10:28.380Z,28.06
2022-08-02T15:12:30.963Z,27.98
2022-08-02T15:14:33.617Z,27.38
2022-08-02T15:16:55.361Z,28.60
2022-08-02T15:18:58.877Z,28.96
2022-08-02T15:21:16.163Z,29.25
2022-08-02T15:23:37.278Z,28.94
2022-08-02T15:25:41.763Z,28.43
2022-08-02T15:27:45.146Z,27.91
2022-08-02T15:29:47.800Z,30.05
2022-08-02T15:31:50.477Z,29.52
2022-08-02T15:33:53.169Z,28.93
2022-08-02T15:35:55.763Z,32.18
2022-08-02T15:37:58.543Z,30.36
2022-08-02T15:40:01.322Z,30.64
2022-08-02T15:42:04.569Z,31.69
2022-08-02T15:44:10.163Z,34.84
2022-08-02T15:46:12.773Z,32.80
2022-08-02T15:48:15.534Z,33.28
2022-08-02T15:50:18.931Z,33.38
2022-08-02T15:52:21.643Z,33.46
2022-08-02T15:54:25.071Z,34.24
2022-08-02T15:56:27.849Z,34.75
2022-08-02T15:58:30.459Z,35.40
2022-08-02T16:00:33.188Z,36.18
2022-08-02T16:02:35.780Z,36.64
2022-08-02T16:04:38.370Z,37.55
2022-08-02T16:06:40.943Z,37.39
2022-08-02T16:08:53.923Z,38.00
2022-08-02T16:10:57.555Z,38.41
2022-08-02T16:13:18.824Z,38.90
2022-08-02T16:15:21.446Z,39.70
2022-08-02T16:17:48.569Z,39.82
2022-08-02T16:19:50.467Z,40.34
2022-08-02T16:21:56.370Z,39.68
2022-08-02T16:24:02.610Z,40.29
2022-08-02T16:26:05.922Z,40.19
2022-08-02T16:28:08.495Z,40.68
2022-08-02T16:30:11.802Z,41.16
2022-08-02T16:32:16.213Z,41.82
2022-08-02T16:34:19.062Z,41.04
2022-08-02T16:36:21.622Z,41.38
2022-08-02T16:38:24.364Z,41.78
2022-08-02T16:40:27.095Z,41.93
2022-08-02T16:42:29.688Z,42.27
2022-08-02T16:44:33.830Z,42.75
2022-08-02T16:46:37.150Z,43.15
2022-08-02T16:48:40.007Z,43.85
2022-08-02T16:50:46.609Z,44.13
2022-08-02T16:52:49.384Z,44.41
2022-08-02T16:54:51.969Z,44.30
2022-08-02T16:56:54.669Z,44.68
2022-08-02T16:58:59.745Z,45.14
2022-08-02T17:01:03.269Z,45.10
2022-08-02T17:03:13.057Z,46.72
2022-08-02T17:05:17.513Z,48.46
2022-08-02T17:08:08.204Z,48.95
2022-08-02T17:10:04.413Z,50.11
2022-08-02T17:12:06.359Z,50.67
2022-08-02T17:14:10.355Z,49.97
2022-08-02T17:16:25.911Z,51.16
2022-08-02T17:18:29.996Z,49.72
2022-08-02T17:20:32.790Z,49.13
2022-08-02T17:22:36.901Z,51.23
2022-08-02T17:24:39.693Z,51.29
2022-08-02T17:26:42.347Z,50.94
2022-08-02T17:29:14.400Z,50.69
2022-08-02T17:31:07.562Z,49.96
2022-08-02T17:33:10.240Z,51.51
2022-08-02T17:35:15.626Z,51.11
2022-08-02T17:37:19.249Z,52.06
2022-08-02T17:39:21.902Z,51.16
2022-08-02T17:41:37.899Z,51.22
2022-08-02T17:43:47.992Z,52.22
2022-08-02T17:46:02.173Z,54.37
2022-08-02T17:48:05.802Z,54.43
2022-08-02T17:50:08.911Z,54.28
2022-08-02T17:52:50.593Z,54.80
2022-08-02T17:54:38.204Z,53.74
2022-08-02T17:56:42.286Z,53.54
2022-08-02T17:58:53.763Z,55.25
2022-08-02T18:00:57.175Z,54.59
2022-08-02T18:03:00.860Z,54.23
2022-08-02T18:05:04.267Z,54.91
2022-08-02T18:07:09.445Z,54.86
2022-08-02T18:09:12.897Z,55.13
2022-08-02T18:11:16.749Z,55.22
2022-08-02T18:13:20.346Z,54.93
2022-08-02T18:15:23.322Z,56.22
2022-08-02T18:17:26.698Z,55.05
2022-08-02T18:21:54.534Z,56.53
2022-08-02T18:23:58.141Z,55.03
2022-08-02T18:26:01.883Z,56.71
2022-08-02T18:28:04.858Z,56.13
2022-08-02T18:30:09.098Z,57.29
2022-08-02T18:32:15.268Z,56.67
2022-08-02T18:34:19.605Z,56.68
2022-08-02T18:36:27.009Z,56.69
2022-08-02T18:38:31.245Z,57.57
2022-08-02T18:40:33.862Z,57.89
2022-08-02T18:42:36.409Z,58.62
2022-08-02T18:44:40.177Z,59.94
2022-08-02T18:46:42.799Z,59.23
2022-08-02T18:51:09.398Z,59.10
2022-08-02T18:53:12.038Z,59.16
2022-08-02T18:55:17.394Z,58.83
2022-08-02T18:58:17.314Z,58.91
2022-08-02T19:00:01.536Z,59.06
2022-08-02T19:02:06.834Z,59.66
2022-08-02T19:04:09.539Z,59.22
2022-08-02T19:06:12.157Z,59.20
2022-08-02T19:08:15.570Z,59.51
2022-08-02T19:10:18.910Z,59.64
2022-08-02T19:12:28.243Z,59.44
2022-08-02T19:14:31.246Z,60.53
2022-08-02T19:16:37.522Z,60.45
2022-08-02T19:18:40.732Z,60.85
2022-08-02T19:20:48.041Z,60.46
2022-08-02T19:22:53.610Z,60.19
2022-08-02T19:25:00.113Z,59.82
2022-08-02T19:27:13.277Z,60.50
2022-08-02T19:29:18.978Z,60.42
2022-08-02T19:32:00.203Z,61.08
2022-08-02T19:34:07.531Z,61.39
2022-08-02T19:36:11.772Z,61.82
2022-08-02T19:38:15.074Z,61.66
2022-08-02T19:40:24.334Z,61.93
2022-08-02T19:42:27.311Z,61.71
2022-08-02T19:44:30.063Z,62.14
2022-08-02T19:46:32.804Z,62.19
2022-08-02T19:48:35.599Z,62.77
2022-08-02T19:50:39.901Z,63.07
2022-08-02T19:52:47.340Z,62.60
2022-08-02T19:54:58.663Z,62.53
2022-08-02T19:57:08.359Z,62.62
2022-08-02T19:59:13.418Z,63.20
2022-08-02T20:01:18.577Z,63.39
2022-08-02T20:03:51.117Z,63.49
2022-08-02T20:05:45.901Z,63.18
2022-08-02T20:07:56.466Z,64.16
2022-08-02T20:09:59.329Z,63.23
2022-08-02T20:12:04.455Z,63.54
2022-08-02T20:14:07.782Z,63.47
2022-08-02T20:16:10.360Z,63.73
2022-08-02T20:18:26.684Z,64.00
2022-08-02T20:20:32.130Z,64.27
2022-08-02T20:22:54.777Z,63.85
2022-08-02T20:24:57.432Z,64.42
2022-08-02T20:27:01.573Z,63.94
2022-08-02T20:29:04.801Z,63.92
2022-08-02T20:31:09.465Z,64.54
2022-08-02T20:33:21.641Z,64.49
2022-08-02T20:35:26.325Z,64.47
2022-08-02T20:38:01.284Z,64.52
2022-08-02T20:39:52.382Z,64.30
2022-08-02T20:44:30.917Z,64.46
2022-08-02T20:46:34.683Z,64.16
2022-08-02T20:48:37.479Z,63.62
2022-08-02T20:50:52.237Z,64.14
2022-08-02T20:52:55.823Z,64.00
2022-08-02T20:54:58.638Z,63.85
2022-08-02T20:57:01.146Z,62.69
2022-08-02T20:59:15.733Z,62.13
2022-08-02T21:01:18.694Z,63.78
2022-08-02T21:03:24.043Z,63.81
2022-08-02T21:05:55.042Z,63.79
2022-08-02T21:07:59.226Z,64.17
2022-08-02T21:10:02.063Z,64.37
2022-08-02T21:12:06.361Z,64.26
2022-08-02T21:14:15.198Z,64.03
2022-08-02T21:16:23.211Z,63.45
2022-08-02T21:18:33.417Z,64.25
2022-08-02T21:20:44.290Z,64.29
2022-08-02T21:22:47.069Z,64.46
2022-08-02T21:24:49.662Z,64.32
2022-08-02T21:26:53.186Z,65.01
2022-08-02T21:28:58.315Z,65.61
2022-08-02T21:31:03.970Z,66.11
2022-08-02T21:33:06.567Z,65.95
2022-08-02T21:35:24.770Z,66.47
2022-08-02T21:39:50.541Z,67.19
2022-08-02T21:41:57.043Z,67.33
2022-08-02T21:44:05.131Z,67.83
2022-08-02T21:46:09.262Z,68.76
2022-08-02T21:48:17.185Z,68.64
2022-08-02T21:50:20.486Z,68.91
2022-08-02T21:52:25.839Z,69.07
2022-08-02T21:54:28.689Z,69.28
2022-08-02T21:56:31.303Z,69.81
2022-08-02T21:58:34.587Z,69.58
2022-08-02T22:00:37.236Z,70.21
2022-08-02T22:02:39.982Z,70.94
2022-08-02T22:04:48.057Z,70.89
2022-08-02T22:06:51.316Z,71.19
2022-08-02T22:08:53.994Z,71.49
2022-08-02T22:11:03.918Z,71.70
2022-08-02T22:13:06.692Z,72.07
2022-08-02T22:15:17.084Z,72.00
2022-08-02T22:17:53.417Z,72.19
2022-08-02T22:19:54.637Z,72.89
2022-08-02T22:22:00.573Z,73.25
2022-08-02T22:24:05.670Z,73.41
2022-08-02T22:26:15.624Z,73.89
2022-08-02T22:42:34.708Z,74.61
2022-08-02T22:44:37.340Z,75.34
2022-08-02T22:46:40.638Z,75.17
2022-08-02T22:48:43.951Z,75.40
2022-08-02T22:50:46.540Z,75.21
2022-08-02T22:52:50.483Z,75.45
2022-08-02T22:54:53.150Z,75.87
2022-08-02T22:56:57.346Z,75.81
2022-08-02T22:58:56.096Z,64.35
2022-08-02T22:58:58.831Z,55.68
2022-08-02T22:58:59.843Z,58.70
2022-08-02T22:59:03.236Z,66.93
2022-08-02T23:01:18.450Z,75.92
2022-08-02T23:03:20.977Z,76.11
2022-08-02T23:05:23.463Z,76.30
2022-08-02T23:07:25.869Z,76.35
2022-08-02T23:09:28.679Z,76.66
2022-08-02T23:11:31.225Z,76.98
2022-08-02T23:13:33.661Z,77.13
2022-08-02T23:15:57.592Z,77.71
2022-08-02T23:18:18.533Z,77.58
2022-08-02T23:20:21.335Z,77.92
2022-08-02T23:22:30.101Z,77.93
2022-08-02T23:24:35.046Z,78.29
2022-08-02T23:26:37.540Z,78.64
2022-08-02T23:28:39.973Z,78.79
2022-08-02T23:30:42.458Z,78.68
2022-08-02T23:32:45.134Z,78.60
2022-08-02T23:34:50.242Z,78.87
2022-08-02T23:36:52.767Z,78.66
2022-08-02T23:38:56.657Z,78.90
2022-08-02T23:41:04.067Z,79.06
2022-08-02T23:43:14.518Z,79.10
2022-08-02T23:45:17.768Z,79.32
2022-08-02T23:47:20.502Z,79.43
2022-08-02T23:49:24.784Z,79.78
2022-08-02T23:51:27.410Z,79.70
2022-08-02T23:53:31.336Z,79.90
2022-08-02T23:55:33.864Z,80.04
2022-08-02T23:57:36.436Z,80.20
2022-08-02T23:59:38.924Z,80.62
